sensor_id;sensor_type;location;lat;lon;timestamp;temperature;humidity
5899;DHT22;2975;50.956;6.962;2023-07-13T00:01:28;17.90;86.80
5899;DHT22;2975;50.956;6.962;2023-07-13T00:03:54;18.00;87.30
5899;DHT22;2975;50.956;6.962;2023-07-13T00:06:20;18.10;86.90
5899;DHT22;2975;50.956;6.962;2023-07-13T00:08:46;18.10;87.10
5899;DHT22;2975;50.956;6.962;2023-07-13T00:11:13;18.10;87.40
5899;DHT22;2975;50.956;6.962;2023-07-13T00:13:38;18.20;87.60
5899;DHT22;2975;50.956;6.962;2023-07-13T00:16:05;18.30;87.80
5899;DHT22;2975;50.956;6.962;2023-07-13T00:18:31;18.30;87.10
5899;DHT22;2975;50.956;6.962;2023-07-13T00:20:57;18.20;87.10
5899;DHT22;2975;50.956;6.962;2023-07-13T00:23:34;18.20;87.80
5899;DHT22;2975;50.956;6.962;2023-07-13T00:26:00;18.20;88.20
5899;DHT22;2975;50.956;6.962;2023-07-13T00:28:26;18.30;87.60
5899;DHT22;2975;50.956;6.962;2023-07-13T00:30:52;18.30;87.80
5899;DHT22;2975;50.956;6.962;2023-07-13T00:33:17;18.30;88.40
5899;DHT22;2975;50.956;6.962;2023-07-13T00:35:43;18.50;88.00
5899;DHT22;2975;50.956;6.962;2023-07-13T00:38:09;18.50;87.90
5899;DHT22;2975;50.956;6.962;2023-07-13T00:40:35;18.50;87.60
5899;DHT22;2975;50.956;6.962;2023-07-13T00:43:01;18.50;87.60
5899;DHT22;2975;50.956;6.962;2023-07-13T00:47:53;18.50;87.60
5899;DHT22;2975;50.956;6.962;2023-07-13T00:50:20;18.40;86.80
5899;DHT22;2975;50.956;6.962;2023-07-13T00:52:50;18.30;87.60
5899;DHT22;2975;50.956;6.962;2023-07-13T00:55:18;18.30;87.50
5899;DHT22;2975;50.956;6.962;2023-07-13T00:57:46;18.10;88.40
5899;DHT22;2975;50.956;6.962;2023-07-13T01:00:12;18.10;89.20
5899;DHT22;2975;50.956;6.962;2023-07-13T01:02:39;18.10;89.20
5899;DHT22;2975;50.956;6.962;2023-07-13T01:05:13;18.00;89.70
5899;DHT22;2975;50.956;6.962;2023-07-13T01:07:43;17.90;89.80
5899;DHT22;2975;50.956;6.962;2023-07-13T01:10:11;17.80;89.70
5899;DHT22;2975;50.956;6.962;2023-07-13T01:12:37;17.80;90.10
5899;DHT22;2975;50.956;6.962;2023-07-13T01:15:04;17.60;90.50
5899;DHT22;2975;50.956;6.962;2023-07-13T01:17:33;17.60;90.90
5899;DHT22;2975;50.956;6.962;2023-07-13T01:19:59;17.60;90.80
5899;DHT22;2975;50.956;6.962;2023-07-13T01:22:25;17.40;90.80
5899;DHT22;2975;50.956;6.962;2023-07-13T01:24:53;17.40;91.20
5899;DHT22;2975;50.956;6.962;2023-07-13T01:27:24;17.30;91.60
5899;DHT22;2975;50.956;6.962;2023-07-13T01:29:52;17.30;91.90
5899;DHT22;2975;50.956;6.962;2023-07-13T01:32:21;17.20;92.00
5899;DHT22;2975;50.956;6.962;2023-07-13T01:34:53;17.10;92.40
5899;DHT22;2975;50.956;6.962;2023-07-13T01:37:24;17.10;92.30
5899;DHT22;2975;50.956;6.962;2023-07-13T01:39:50;17.00;92.50
5899;DHT22;2975;50.956;6.962;2023-07-13T01:42:16;16.90;93.00
5899;DHT22;2975;50.956;6.962;2023-07-13T01:44:41;17.00;93.50
5899;DHT22;2975;50.956;6.962;2023-07-13T01:47:07;17.10;93.60
5899;DHT22;2975;50.956;6.962;2023-07-13T01:49:33;17.10;93.70
5899;DHT22;2975;50.956;6.962;2023-07-13T01:51:59;17.10;93.60
5899;DHT22;2975;50.956;6.962;2023-07-13T01:54:24;17.10;93.60
5899;DHT22;2975;50.956;6.962;2023-07-13T01:56:50;17.10;93.70
5899;DHT22;2975;50.956;6.962;2023-07-13T01:59:16;17.00;93.70
5899;DHT22;2975;50.956;6.962;2023-07-13T02:01:41;16.90;94.00
5899;DHT22;2975;50.956;6.962;2023-07-13T02:04:07;16.80;93.90
5899;DHT22;2975;50.956;6.962;2023-07-13T02:06:32;16.80;94.40
5899;DHT22;2975;50.956;6.962;2023-07-13T02:08:58;16.80;94.60
5899;DHT22;2975;50.956;6.962;2023-07-13T02:11:24;16.80;94.50
5899;DHT22;2975;50.956;6.962;2023-07-13T02:13:50;16.80;94.90
5899;DHT22;2975;50.956;6.962;2023-07-13T02:16:16;16.70;94.90
5899;DHT22;2975;50.956;6.962;2023-07-13T02:18:41;16.70;95.00
5899;DHT22;2975;50.956;6.962;2023-07-13T02:21:07;16.70;95.10
5899;DHT22;2975;50.956;6.962;2023-07-13T02:23:33;16.60;95.10
5899;DHT22;2975;50.956;6.962;2023-07-13T02:26:01;16.60;95.50
5899;DHT22;2975;50.956;6.962;2023-07-13T02:28:28;16.60;95.60
5899;DHT22;2975;50.956;6.962;2023-07-13T02:30:53;16.60;95.70
5899;DHT22;2975;50.956;6.962;2023-07-13T02:33:19;16.70;96.30
5899;DHT22;2975;50.956;6.962;2023-07-13T02:35:45;16.80;96.30
5899;DHT22;2975;50.956;6.962;2023-07-13T02:38:11;16.90;96.00
5899;DHT22;2975;50.956;6.962;2023-07-13T02:40:37;16.90;96.00
5899;DHT22;2975;50.956;6.962;2023-07-13T02:43:03;16.90;96.10
5899;DHT22;2975;50.956;6.962;2023-07-13T02:45:29;17.00;95.90
5899;DHT22;2975;50.956;6.962;2023-07-13T02:47:55;17.10;95.60
5899;DHT22;2975;50.956;6.962;2023-07-13T02:50:20;17.10;95.50
5899;DHT22;2975;50.956;6.962;2023-07-13T02:52:46;17.20;95.40
5899;DHT22;2975;50.956;6.962;2023-07-13T02:55:12;17.20;95.00
5899;DHT22;2975;50.956;6.962;2023-07-13T02:57:37;17.20;95.10
5899;DHT22;2975;50.956;6.962;2023-07-13T03:00:04;17.10;95.00
5899;DHT22;2975;50.956;6.962;2023-07-13T03:02:33;17.20;95.30
5899;DHT22;2975;50.956;6.962;2023-07-13T03:04:59;17.20;95.10
5899;DHT22;2975;50.956;6.962;2023-07-13T03:07:25;17.20;94.90
5899;DHT22;2975;50.956;6.962;2023-07-13T03:09:57;17.20;95.20
5899;DHT22;2975;50.956;6.962;2023-07-13T03:12:24;17.20;95.50
5899;DHT22;2975;50.956;6.962;2023-07-13T03:14:50;17.30;95.20
5899;DHT22;2975;50.956;6.962;2023-07-13T03:17:15;17.40;94.90
5899;DHT22;2975;50.956;6.962;2023-07-13T03:19:41;17.50;94.70
5899;DHT22;2975;50.956;6.962;2023-07-13T03:22:07;17.50;94.20
5899;DHT22;2975;50.956;6.962;2023-07-13T03:24:33;17.50;94.10
5899;DHT22;2975;50.956;6.962;2023-07-13T03:27:04;17.40;94.60
5899;DHT22;2975;50.956;6.962;2023-07-13T03:29:29;17.50;94.60
5899;DHT22;2975;50.956;6.962;2023-07-13T03:31:55;17.50;94.60
5899;DHT22;2975;50.956;6.962;2023-07-13T03:34:21;17.50;94.40
5899;DHT22;2975;50.956;6.962;2023-07-13T03:36:46;17.60;94.50
5899;DHT22;2975;50.956;6.962;2023-07-13T03:39:12;17.60;94.50
5899;DHT22;2975;50.956;6.962;2023-07-13T03:41:38;17.70;94.60
5899;DHT22;2975;50.956;6.962;2023-07-13T03:44:04;17.70;94.10
5899;DHT22;2975;50.956;6.962;2023-07-13T03:46:29;17.60;94.20
5899;DHT22;2975;50.956;6.962;2023-07-13T03:48:55;17.60;94.10
5899;DHT22;2975;50.956;6.962;2023-07-13T03:51:21;17.60;94.20
5899;DHT22;2975;50.956;6.962;2023-07-13T03:53:47;17.60;94.00
5899;DHT22;2975;50.956;6.962;2023-07-13T03:56:14;17.60;94.10
5899;DHT22;2975;50.956;6.962;2023-07-13T03:58:41;17.70;94.10
5899;DHT22;2975;50.956;6.962;2023-07-13T04:01:09;17.70;94.00
5899;DHT22;2975;50.956;6.962;2023-07-13T04:03:35;17.70;93.80
5899;DHT22;2975;50.956;6.962;2023-07-13T04:06:03;17.70;93.80
5899;DHT22;2975;50.956;6.962;2023-07-13T04:08:34;17.70;94.00
5899;DHT22;2975;50.956;6.962;2023-07-13T04:11:03;17.80;94.10
5899;DHT22;2975;50.956;6.962;2023-07-13T04:13:28;17.90;93.50
5899;DHT22;2975;50.956;6.962;2023-07-13T04:15:54;18.00;93.80
5899;DHT22;2975;50.956;6.962;2023-07-13T04:18:20;18.30;93.20
5899;DHT22;2975;50.956;6.962;2023-07-13T04:20:47;18.40;92.90
5899;DHT22;2975;50.956;6.962;2023-07-13T04:23:13;18.40;93.00
5899;DHT22;2975;50.956;6.962;2023-07-13T04:25:39;18.30;93.00
5899;DHT22;2975;50.956;6.962;2023-07-13T04:28:04;18.30;93.00
5899;DHT22;2975;50.956;6.962;2023-07-13T04:30:31;18.30;93.30
5899;DHT22;2975;50.956;6.962;2023-07-13T04:32:57;18.30;93.70
5899;DHT22;2975;50.956;6.962;2023-07-13T04:35:22;18.50;93.20
5899;DHT22;2975;50.956;6.962;2023-07-13T04:37:49;18.70;93.00
5899;DHT22;2975;50.956;6.962;2023-07-13T04:40:16;18.70;92.90
5899;DHT22;2975;50.956;6.962;2023-07-13T04:42:43;18.70;92.70
5899;DHT22;2975;50.956;6.962;2023-07-13T04:45:09;18.70;92.80
5899;DHT22;2975;50.956;6.962;2023-07-13T04:47:35;18.70;93.00
5899;DHT22;2975;50.956;6.962;2023-07-13T04:50:01;18.70;93.00
5899;DHT22;2975;50.956;6.962;2023-07-13T04:52:26;18.70;93.20
5899;DHT22;2975;50.956;6.962;2023-07-13T04:54:52;19.60;93.10
5899;DHT22;2975;50.956;6.962;2023-07-13T04:57:18;21.00;90.90
5899;DHT22;2975;50.956;6.962;2023-07-13T04:59:43;22.20;88.60
5899;DHT22;2975;50.956;6.962;2023-07-13T05:02:09;23.40;84.50
5899;DHT22;2975;50.956;6.962;2023-07-13T05:04:35;24.50;81.10
5899;DHT22;2975;50.956;6.962;2023-07-13T05:07:01;25.60;77.40
5899;DHT22;2975;50.956;6.962;2023-07-13T05:09:26;26.10;74.50
5899;DHT22;2975;50.956;6.962;2023-07-13T05:11:52;26.30;73.40
5899;DHT22;2975;50.956;6.962;2023-07-13T05:14:18;26.90;71.50
5899;DHT22;2975;50.956;6.962;2023-07-13T05:16:43;27.70;70.00
5899;DHT22;2975;50.956;6.962;2023-07-13T05:19:09;28.10;67.80
5899;DHT22;2975;50.956;6.962;2023-07-13T05:21:35;28.10;66.60
5899;DHT22;2975;50.956;6.962;2023-07-13T05:24:01;28.50;65.70
5899;DHT22;2975;50.956;6.962;2023-07-13T05:26:27;29.00;64.30
5899;DHT22;2975;50.956;6.962;2023-07-13T05:28:52;29.40;63.90
5899;DHT22;2975;50.956;6.962;2023-07-13T05:31:18;30.10;62.20
5899;DHT22;2975;50.956;6.962;2023-07-13T05:33:44;29.10;61.00
5899;DHT22;2975;50.956;6.962;2023-07-13T05:36:09;28.40;63.80
5899;DHT22;2975;50.956;6.962;2023-07-13T05:38:35;29.20;63.70
5899;DHT22;2975;50.956;6.962;2023-07-13T05:41:01;29.70;62.10
5899;DHT22;2975;50.956;6.962;2023-07-13T05:43:26;30.30;60.90
5899;DHT22;2975;50.956;6.962;2023-07-13T05:45:56;30.70;59.20
5899;DHT22;2975;50.956;6.962;2023-07-13T05:48:22;32.20;58.60
5899;DHT22;2975;50.956;6.962;2023-07-13T05:50:48;33.10;55.50
5899;DHT22;2975;50.956;6.962;2023-07-13T05:53:14;33.90;53.90
5899;DHT22;2975;50.956;6.962;2023-07-13T05:55:45;34.40;51.50
5899;DHT22;2975;50.956;6.962;2023-07-13T05:58:13;33.90;51.10
5899;DHT22;2975;50.956;6.962;2023-07-13T06:00:39;32.50;52.20
5899;DHT22;2975;50.956;6.962;2023-07-13T06:03:04;30.60;54.40
5899;DHT22;2975;50.956;6.962;2023-07-13T06:05:32;28.70;57.50
5899;DHT22;2975;50.956;6.962;2023-07-13T06:07:59;27.50;60.70
5899;DHT22;2975;50.956;6.962;2023-07-13T06:10:25;27.50;63.10
5899;DHT22;2975;50.956;6.962;2023-07-13T06:12:50;27.90;62.20
5899;DHT22;2975;50.956;6.962;2023-07-13T06:15:16;27.90;62.40
5899;DHT22;2975;50.956;6.962;2023-07-13T06:17:42;27.40;62.50
5899;DHT22;2975;50.956;6.962;2023-07-13T06:20:08;26.50;64.70
5899;DHT22;2975;50.956;6.962;2023-07-13T06:22:33;26.30;66.60
5899;DHT22;2975;50.956;6.962;2023-07-13T06:24:59;26.50;67.10
5899;DHT22;2975;50.956;6.962;2023-07-13T06:27:24;27.30;66.30
5899;DHT22;2975;50.956;6.962;2023-07-13T06:29:50;28.30;64.10
5899;DHT22;2975;50.956;6.962;2023-07-13T06:32:16;28.50;63.10
5899;DHT22;2975;50.956;6.962;2023-07-13T06:34:41;28.20;63.80
5899;DHT22;2975;50.956;6.962;2023-07-13T06:37:07;29.00;62.20
5899;DHT22;2975;50.956;6.962;2023-07-13T06:39:32;29.10;61.10
5899;DHT22;2975;50.956;6.962;2023-07-13T06:41:58;29.30;60.80
5899;DHT22;2975;50.956;6.962;2023-07-13T06:44:23;29.60;61.50
5899;DHT22;2975;50.956;6.962;2023-07-13T06:46:49;28.90;60.80
5899;DHT22;2975;50.956;6.962;2023-07-13T06:49:15;27.30;62.70
5899;DHT22;2975;50.956;6.962;2023-07-13T06:51:40;25.50;67.00
5899;DHT22;2975;50.956;6.962;2023-07-13T06:54:06;24.30;70.30
5899;DHT22;2975;50.956;6.962;2023-07-13T06:56:32;23.20;73.80
5899;DHT22;2975;50.956;6.962;2023-07-13T06:58:57;22.50;77.00
5899;DHT22;2975;50.956;6.962;2023-07-13T07:01:23;22.00;79.20
5899;DHT22;2975;50.956;6.962;2023-07-13T07:03:48;22.00;81.60
5899;DHT22;2975;50.956;6.962;2023-07-13T07:06:20;21.90;81.20
5899;DHT22;2975;50.956;6.962;2023-07-13T07:08:47;22.00;82.80
5899;DHT22;2975;50.956;6.962;2023-07-13T07:11:16;22.40;82.00
5899;DHT22;2975;50.956;6.962;2023-07-13T07:13:42;22.70;81.20
5899;DHT22;2975;50.956;6.962;2023-07-13T07:16:07;23.00;80.50
5899;DHT22;2975;50.956;6.962;2023-07-13T07:18:34;23.30;80.00
5899;DHT22;2975;50.956;6.962;2023-07-13T07:21:00;23.50;79.60
5899;DHT22;2975;50.956;6.962;2023-07-13T07:23:25;23.80;79.30
5899;DHT22;2975;50.956;6.962;2023-07-13T07:25:51;24.10;78.10
5899;DHT22;2975;50.956;6.962;2023-07-13T07:28:18;24.40;77.70
5899;DHT22;2975;50.956;6.962;2023-07-13T07:30:47;24.80;76.40
5899;DHT22;2975;50.956;6.962;2023-07-13T07:33:14;24.90;75.60
5899;DHT22;2975;50.956;6.962;2023-07-13T07:35:39;25.00;75.30
5899;DHT22;2975;50.956;6.962;2023-07-13T07:38:05;25.20;75.40
5899;DHT22;2975;50.956;6.962;2023-07-13T07:40:31;25.40;75.50
5899;DHT22;2975;50.956;6.962;2023-07-13T07:42:57;25.60;73.40
5899;DHT22;2975;50.956;6.962;2023-07-13T07:45:23;25.60;73.00
5899;DHT22;2975;50.956;6.962;2023-07-13T07:47:49;25.50;73.60
5899;DHT22;2975;50.956;6.962;2023-07-13T07:50:15;25.70;73.90
5899;DHT22;2975;50.956;6.962;2023-07-13T07:52:41;25.80;73.00
5899;DHT22;2975;50.956;6.962;2023-07-13T07:55:08;25.70;73.00
5899;DHT22;2975;50.956;6.962;2023-07-13T07:57:34;25.60;72.80
5899;DHT22;2975;50.956;6.962;2023-07-13T07:59:59;25.50;73.30
5899;DHT22;2975;50.956;6.962;2023-07-13T08:02:25;25.50;73.70
5899;DHT22;2975;50.956;6.962;2023-07-13T08:04:51;25.60;73.50
5899;DHT22;2975;50.956;6.962;2023-07-13T08:07:18;25.60;73.60
5899;DHT22;2975;50.956;6.962;2023-07-13T08:09:43;25.40;73.70
5899;DHT22;2975;50.956;6.962;2023-07-13T08:12:09;25.30;74.20
5899;DHT22;2975;50.956;6.962;2023-07-13T08:14:35;25.20;74.30
5899;DHT22;2975;50.956;6.962;2023-07-13T08:17:00;25.30;74.30
5899;DHT22;2975;50.956;6.962;2023-07-13T08:19:26;25.60;74.20
5899;DHT22;2975;50.956;6.962;2023-07-13T08:21:51;25.70;73.10
5899;DHT22;2975;50.956;6.962;2023-07-13T08:24:17;25.40;73.40
5899;DHT22;2975;50.956;6.962;2023-07-13T08:26:44;25.20;73.80
5899;DHT22;2975;50.956;6.962;2023-07-13T08:29:11;24.80;75.10
5899;DHT22;2975;50.956;6.962;2023-07-13T08:31:37;24.60;75.00
5899;DHT22;2975;50.956;6.962;2023-07-13T08:34:02;24.60;75.60
5899;DHT22;2975;50.956;6.962;2023-07-13T08:36:29;24.50;75.30
5899;DHT22;2975;50.956;6.962;2023-07-13T08:38:55;24.20;76.50
5899;DHT22;2975;50.956;6.962;2023-07-13T08:41:21;24.20;77.10
5899;DHT22;2975;50.956;6.962;2023-07-13T08:43:50;24.20;77.60
5899;DHT22;2975;50.956;6.962;2023-07-13T08:49:01;24.90;76.30
5899;DHT22;2975;50.956;6.962;2023-07-13T08:51:48;24.90;76.30
5899;DHT22;2975;50.956;6.962;2023-07-13T08:54:23;25.10;75.90
5899;DHT22;2975;50.956;6.962;2023-07-13T08:56:54;25.10;74.50
5899;DHT22;2975;50.956;6.962;2023-07-13T08:59:25;25.10;75.50
5899;DHT22;2975;50.956;6.962;2023-07-13T09:10:18;24.80;75.50
5899;DHT22;2975;50.956;6.962;2023-07-13T09:15:41;24.80;75.60
5899;DHT22;2975;50.956;6.962;2023-07-13T09:23:35;24.70;74.80
5899;DHT22;2975;50.956;6.962;2023-07-13T09:26:16;24.60;74.20
5899;DHT22;2975;50.956;6.962;2023-07-13T09:28:49;24.70;75.70
5899;DHT22;2975;50.956;6.962;2023-07-13T09:31:38;25.10;75.00
5899;DHT22;2975;50.956;6.962;2023-07-13T09:34:09;25.40;74.30
5899;DHT22;2975;50.956;6.962;2023-07-13T09:36:35;25.20;73.30
5899;DHT22;2975;50.956;6.962;2023-07-13T09:39:10;25.10;74.10
5899;DHT22;2975;50.956;6.962;2023-07-13T09:44:12;25.20;73.60
5899;DHT22;2975;50.956;6.962;2023-07-13T09:46:39;25.20;73.50
5899;DHT22;2975;50.956;6.962;2023-07-13T09:49:10;25.30;73.20
5899;DHT22;2975;50.956;6.962;2023-07-13T09:51:43;25.20;72.30
5899;DHT22;2975;50.956;6.962;2023-07-13T09:54:21;25.20;73.20
5899;DHT22;2975;50.956;6.962;2023-07-13T09:56:46;25.10;73.30
5899;DHT22;2975;50.956;6.962;2023-07-13T09:59:20;25.10;74.50
5899;DHT22;2975;50.956;6.962;2023-07-13T10:01:46;25.30;72.90
5899;DHT22;2975;50.956;6.962;2023-07-13T10:04:18;25.30;73.10
5899;DHT22;2975;50.956;6.962;2023-07-13T10:06:44;25.10;73.80
5899;DHT22;2975;50.956;6.962;2023-07-13T10:09:15;24.80;73.30
5899;DHT22;2975;50.956;6.962;2023-07-13T10:11:41;24.80;74.40
5899;DHT22;2975;50.956;6.962;2023-07-13T10:14:15;24.70;73.50
5899;DHT22;2975;50.956;6.962;2023-07-13T10:16:43;24.30;74.40
5899;DHT22;2975;50.956;6.962;2023-07-13T10:19:19;24.30;74.90
5899;DHT22;2975;50.956;6.962;2023-07-13T10:21:55;24.30;75.40
5899;DHT22;2975;50.956;6.962;2023-07-13T10:24:25;24.50;74.70
5899;DHT22;2975;50.956;6.962;2023-07-13T10:27:13;24.60;73.80
5899;DHT22;2975;50.956;6.962;2023-07-13T10:30:01;24.70;72.70
5899;DHT22;2975;50.956;6.962;2023-07-13T10:32:27;25.00;73.30
5899;DHT22;2975;50.956;6.962;2023-07-13T10:34:53;25.10;71.40
5899;DHT22;2975;50.956;6.962;2023-07-13T10:37:27;24.90;71.80
5899;DHT22;2975;50.956;6.962;2023-07-13T10:39:55;24.30;72.40
5899;DHT22;2975;50.956;6.962;2023-07-13T10:42:35;23.90;74.30
5899;DHT22;2975;50.956;6.962;2023-07-13T10:45:11;24.00;75.00
5899;DHT22;2975;50.956;6.962;2023-07-13T10:47:37;24.40;74.60
5899;DHT22;2975;50.956;6.962;2023-07-13T10:50:05;24.90;73.00
5899;DHT22;2975;50.956;6.962;2023-07-13T10:55:38;24.80;71.60
5899;DHT22;2975;50.956;6.962;2023-07-13T10:58:20;24.60;71.20
5899;DHT22;2975;50.956;6.962;2023-07-13T11:00:53;24.50;72.30
5899;DHT22;2975;50.956;6.962;2023-07-13T11:03:22;24.90;72.00
5899;DHT22;2975;50.956;6.962;2023-07-13T11:05:50;25.10;70.20
5899;DHT22;2975;50.956;6.962;2023-07-13T11:08:19;25.00;70.50
5899;DHT22;2975;50.956;6.962;2023-07-13T11:16:43;24.30;72.20
5899;DHT22;2975;50.956;6.962;2023-07-13T11:25:02;24.00;74.20
5899;DHT22;2975;50.956;6.962;2023-07-13T11:27:45;23.80;74.70
5899;DHT22;2975;50.956;6.962;2023-07-13T11:33:14;24.00;74.70
5899;DHT22;2975;50.956;6.962;2023-07-13T11:36:06;24.10;74.60
5899;DHT22;2975;50.956;6.962;2023-07-13T11:38:36;24.40;74.30
5899;DHT22;2975;50.956;6.962;2023-07-13T11:41:05;24.70;73.80
5899;DHT22;2975;50.956;6.962;2023-07-13T11:43:33;24.90;71.80
5899;DHT22;2975;50.956;6.962;2023-07-13T11:46:12;24.70;72.20
5899;DHT22;2975;50.956;6.962;2023-07-13T11:48:38;24.70;72.30
5899;DHT22;2975;50.956;6.962;2023-07-13T11:51:05;24.50;72.70
5899;DHT22;2975;50.956;6.962;2023-07-13T11:53:47;24.60;72.40
5899;DHT22;2975;50.956;6.962;2023-07-13T11:56:14;24.30;72.40
5899;DHT22;2975;50.956;6.962;2023-07-13T11:58:40;24.10;73.10
5899;DHT22;2975;50.956;6.962;2023-07-13T12:01:10;24.10;73.60
5899;DHT22;2975;50.956;6.962;2023-07-13T12:03:41;24.50;71.80
5899;DHT22;2975;50.956;6.962;2023-07-13T12:06:28;24.50;70.20
5899;DHT22;2975;50.956;6.962;2023-07-13T12:09:02;24.70;70.80
5899;DHT22;2975;50.956;6.962;2023-07-13T12:11:29;25.10;71.00
5899;DHT22;2975;50.956;6.962;2023-07-13T12:13:55;25.30;70.10
5899;DHT22;2975;50.956;6.962;2023-07-13T12:16:28;25.60;69.20
5899;DHT22;2975;50.956;6.962;2023-07-13T12:18:56;25.70;68.50
5899;DHT22;2975;50.956;6.962;2023-07-13T12:21:29;25.60;68.10
5899;DHT22;2975;50.956;6.962;2023-07-13T12:23:55;25.70;68.40
5899;DHT22;2975;50.956;6.962;2023-07-13T12:26:21;25.70;68.30
5899;DHT22;2975;50.956;6.962;2023-07-13T12:28:51;25.70;68.50
5899;DHT22;2975;50.956;6.962;2023-07-13T12:31:37;25.80;66.90
5899;DHT22;2975;50.956;6.962;2023-07-13T12:34:13;25.70;66.60
5899;DHT22;2975;50.956;6.962;2023-07-13T12:36:59;25.50;65.90
5899;DHT22;2975;50.956;6.962;2023-07-13T12:39:36;25.30;66.50
5899;DHT22;2975;50.956;6.962;2023-07-13T12:42:23;25.40;68.10
5899;DHT22;2975;50.956;6.962;2023-07-13T12:44:57;25.60;67.30
5899;DHT22;2975;50.956;6.962;2023-07-13T12:47:24;25.60;67.70
5899;DHT22;2975;50.956;6.962;2023-07-13T12:49:55;25.70;67.40
5899;DHT22;2975;50.956;6.962;2023-07-13T12:52:27;25.40;67.40
5899;DHT22;2975;50.956;6.962;2023-07-13T12:54:57;25.10;68.40
5899;DHT22;2975;50.956;6.962;2023-07-13T12:57:24;25.30;69.40
5899;DHT22;2975;50.956;6.962;2023-07-13T12:59:53;25.60;67.40
5899;DHT22;2975;50.956;6.962;2023-07-13T13:02:30;25.80;66.30
5899;DHT22;2975;50.956;6.962;2023-07-13T13:04:57;26.10;65.70
5899;DHT22;2975;50.956;6.962;2023-07-13T13:07:24;26.20;64.60
5899;DHT22;2975;50.956;6.962;2023-07-13T13:09:50;26.40;64.80
5899;DHT22;2975;50.956;6.962;2023-07-13T13:12:16;26.20;64.20
5899;DHT22;2975;50.956;6.962;2023-07-13T13:14:42;25.90;64.40
5899;DHT22;2975;50.956;6.962;2023-07-13T13:17:24;25.80;65.40
5899;DHT22;2975;50.956;6.962;2023-07-13T13:19:52;25.70;65.20
5899;DHT22;2975;50.956;6.962;2023-07-13T13:22:21;25.30;66.30
5899;DHT22;2975;50.956;6.962;2023-07-13T13:24:46;25.30;67.10
5899;DHT22;2975;50.956;6.962;2023-07-13T13:27:17;25.40;66.30
5899;DHT22;2975;50.956;6.962;2023-07-13T13:29:43;25.60;66.00
5899;DHT22;2975;50.956;6.962;2023-07-13T13:32:13;26.00;63.50
5899;DHT22;2975;50.956;6.962;2023-07-13T13:34:39;26.10;60.90
5899;DHT22;2975;50.956;6.962;2023-07-13T13:37:10;26.10;60.40
5899;DHT22;2975;50.956;6.962;2023-07-13T13:39:41;25.90;60.80
5899;DHT22;2975;50.956;6.962;2023-07-13T13:42:09;25.80;61.50
5899;DHT22;2975;50.956;6.962;2023-07-13T13:44:35;25.50;63.30
5899;DHT22;2975;50.956;6.962;2023-07-13T13:47:01;25.30;64.40
5899;DHT22;2975;50.956;6.962;2023-07-13T13:49:29;25.60;64.20
5899;DHT22;2975;50.956;6.962;2023-07-13T13:51:55;25.90;62.60
5899;DHT22;2975;50.956;6.962;2023-07-13T13:54:22;26.10;63.30
5899;DHT22;2975;50.956;6.962;2023-07-13T13:56:50;26.30;63.50
5899;DHT22;2975;50.956;6.962;2023-07-13T13:59:16;26.60;62.40
5899;DHT22;2975;50.956;6.962;2023-07-13T14:01:44;26.60;60.90
5899;DHT22;2975;50.956;6.962;2023-07-13T14:04:16;26.50;60.90
5899;DHT22;2975;50.956;6.962;2023-07-13T14:06:43;26.30;62.80
5899;DHT22;2975;50.956;6.962;2023-07-13T14:09:11;26.00;63.40
5899;DHT22;2975;50.956;6.962;2023-07-13T14:11:38;25.90;62.50
5899;DHT22;2975;50.956;6.962;2023-07-13T14:14:14;25.90;62.60
5899;DHT22;2975;50.956;6.962;2023-07-13T14:16:41;25.80;63.00
5899;DHT22;2975;50.956;6.962;2023-07-13T14:19:12;25.90;63.40
5899;DHT22;2975;50.956;6.962;2023-07-13T14:21:39;26.00;62.00
5899;DHT22;2975;50.956;6.962;2023-07-13T14:24:05;25.90;62.70
5899;DHT22;2975;50.956;6.962;2023-07-13T14:26:34;25.90;62.40
5899;DHT22;2975;50.956;6.962;2023-07-13T14:29:01;25.90;63.10
5899;DHT22;2975;50.956;6.962;2023-07-13T14:31:28;26.10;62.70
5899;DHT22;2975;50.956;6.962;2023-07-13T14:33:56;26.20;63.20
5899;DHT22;2975;50.956;6.962;2023-07-13T14:36:29;26.30;62.30
5899;DHT22;2975;50.956;6.962;2023-07-13T14:38:56;26.40;61.70
5899;DHT22;2975;50.956;6.962;2023-07-13T14:41:22;26.30;61.20
5899;DHT22;2975;50.956;6.962;2023-07-13T14:43:48;26.20;61.40
5899;DHT22;2975;50.956;6.962;2023-07-13T14:46:32;26.20;61.60
5899;DHT22;2975;50.956;6.962;2023-07-13T14:49:05;26.00;61.80
5899;DHT22;2975;50.956;6.962;2023-07-13T14:51:32;26.00;62.30
5899;DHT22;2975;50.956;6.962;2023-07-13T14:54:02;26.20;62.60
5899;DHT22;2975;50.956;6.962;2023-07-13T14:56:28;26.20;61.30
5899;DHT22;2975;50.956;6.962;2023-07-13T14:58:53;26.40;61.70
5899;DHT22;2975;50.956;6.962;2023-07-13T15:01:20;26.60;60.80
5899;DHT22;2975;50.956;6.962;2023-07-13T15:03:49;26.80;60.20
5899;DHT22;2975;50.956;6.962;2023-07-13T15:06:15;26.80;61.40
5899;DHT22;2975;50.956;6.962;2023-07-13T15:08:40;26.90;61.10
5899;DHT22;2975;50.956;6.962;2023-07-13T15:11:09;27.00;60.20
5899;DHT22;2975;50.956;6.962;2023-07-13T15:13:39;26.70;60.40
5899;DHT22;2975;50.956;6.962;2023-07-13T15:16:13;26.70;60.10
5899;DHT22;2975;50.956;6.962;2023-07-13T15:18:40;26.60;59.10
5899;DHT22;2975;50.956;6.962;2023-07-13T15:21:13;26.60;57.90
5899;DHT22;2975;50.956;6.962;2023-07-13T15:23:40;26.20;58.00
5899;DHT22;2975;50.956;6.962;2023-07-13T15:26:12;26.00;59.90
5899;DHT22;2975;50.956;6.962;2023-07-13T15:28:40;25.90;59.70
5899;DHT22;2975;50.956;6.962;2023-07-13T15:31:21;25.80;60.90
5899;DHT22;2975;50.956;6.962;2023-07-13T15:33:47;25.70;61.40
5899;DHT22;2975;50.956;6.962;2023-07-13T15:36:19;25.80;61.80
5899;DHT22;2975;50.956;6.962;2023-07-13T15:38:46;25.40;61.90
5899;DHT22;2975;50.956;6.962;2023-07-13T15:41:24;25.20;62.40
5899;DHT22;2975;50.956;6.962;2023-07-13T15:43:51;25.10;62.50
5899;DHT22;2975;50.956;6.962;2023-07-13T15:46:22;24.90;63.20
5899;DHT22;2975;50.956;6.962;2023-07-13T15:48:49;24.80;64.50
5899;DHT22;2975;50.956;6.962;2023-07-13T15:51:22;24.90;64.10
5899;DHT22;2975;50.956;6.962;2023-07-13T15:53:48;24.70;64.20
5899;DHT22;2975;50.956;6.962;2023-07-13T15:56:23;24.60;64.80
5899;DHT22;2975;50.956;6.962;2023-07-13T15:58:50;24.40;64.70
5899;DHT22;2975;50.956;6.962;2023-07-13T16:01:16;24.40;65.40
5899;DHT22;2975;50.956;6.962;2023-07-13T16:03:43;24.30;66.10
5899;DHT22;2975;50.956;6.962;2023-07-13T16:06:34;24.00;67.10
5899;DHT22;2975;50.956;6.962;2023-07-13T16:09:02;23.80;69.00
5899;DHT22;2975;50.956;6.962;2023-07-13T16:11:34;23.70;71.10
5899;DHT22;2975;50.956;6.962;2023-07-13T16:14:00;23.40;73.90
5899;DHT22;2975;50.956;6.962;2023-07-13T16:16:32;23.50;74.70
5899;DHT22;2975;50.956;6.962;2023-07-13T16:19:03;23.60;75.30
5899;DHT22;2975;50.956;6.962;2023-07-13T16:21:32;23.30;76.50
5899;DHT22;2975;50.956;6.962;2023-07-13T16:24:00;22.90;77.30
5899;DHT22;2975;50.956;6.962;2023-07-13T16:26:30;22.70;77.90
5899;DHT22;2975;50.956;6.962;2023-07-13T16:29:14;22.60;78.70
5899;DHT22;2975;50.956;6.962;2023-07-13T16:31:40;22.60;78.90
5899;DHT22;2975;50.956;6.962;2023-07-13T16:34:06;22.60;79.10
5899;DHT22;2975;50.956;6.962;2023-07-13T16:36:34;22.60;79.10
5899;DHT22;2975;50.956;6.962;2023-07-13T16:39:00;22.60;79.30
5899;DHT22;2975;50.956;6.962;2023-07-13T16:41:26;22.60;79.30
5899;DHT22;2975;50.956;6.962;2023-07-13T16:43:51;22.70;78.70
5899;DHT22;2975;50.956;6.962;2023-07-13T16:46:22;22.80;78.70
5899;DHT22;2975;50.956;6.962;2023-07-13T16:48:49;22.80;78.50
5899;DHT22;2975;50.956;6.962;2023-07-13T16:51:15;22.80;78.40